sensor_id;sensor_type;location;lat;lon;timestamp;P1;durP1;ratioP1;P2;durP2;ratioP2
11255;SDS011;5685;52.384;13.420;2022-07-10T00:02:47;11.37;;;10.47;;
11255;SDS011;5685;52.384;13.420;2022-07-10T00:05:49;12.40;;;11.30;;
11255;SDS011;5685;52.384;13.420;2022-07-10T00:08:51;11.90;;;10.90;;
11255;SDS011;5685;52.384;13.420;2022-07-10T00:11:54;12.47;;;11.47;;
11255;SDS011;5685;52.384;13.420;2022-07-10T00:14:57;11.53;;;10.63;;
11255;SDS011;5685;52.384;13.420;2022-07-10T00:18:01;11.50;;;10.57;;
11255;SDS011;5685;52.384;13.420;2022-07-10T00:21:04;11.33;;;10.43;;
11255;SDS011;5685;52.384;13.420;2022-07-10T00:24:06;11.80;;;10.80;;
11255;SDS011;5685;52.384;13.420;2022-07-10T00:27:10;11.53;;;10.73;;
11255;SDS011;5685;52.384;13.420;2022-07-10T00:30:12;11.57;;;10.70;;
11255;SDS011;5685;52.384;13.420;2022-07-10T00:33:15;11.60;;;10.70;;
11255;SDS011;5685;52.384;13.420;2022-07-10T00:36:17;11.73;;;10.90;;
11255;SDS011;5685;52.384;13.420;2022-07-10T00:39:19;11.80;;;10.97;;
11255;SDS011;5685;52.384;13.420;2022-07-10T00:42:21;10.80;;;10.00;;
11255;SDS011;5685;52.384;13.420;2022-07-10T00:45:24;11.20;;;10.30;;
11255;SDS011;5685;52.384;13.420;2022-07-10T00:48:27;11.07;;;10.37;;
11255;SDS011;5685;52.384;13.420;2022-07-10T00:51:29;11.10;;;10.40;;
11255;SDS011;5685;52.384;13.420;2022-07-10T00:54:34;12.30;;;11.40;;
11255;SDS011;5685;52.384;13.420;2022-07-10T00:57:39;10.70;;;9.83;;
11255;SDS011;5685;52.384;13.420;2022-07-10T01:00:42;11.07;;;10.37;;
11255;SDS011;5685;52.384;13.420;2022-07-10T01:03:46;11.37;;;10.37;;
11255;SDS011;5685;52.384;13.420;2022-07-10T01:06:48;12.00;;;10.73;;
11255;SDS011;5685;52.384;13.420;2022-07-10T01:09:50;11.40;;;10.57;;
11255;SDS011;5685;52.384;13.420;2022-07-10T01:12:53;10.93;;;10.23;;
11255;SDS011;5685;52.384;13.420;2022-07-10T01:15:55;11.20;;;10.40;;
11255;SDS011;5685;52.384;13.420;2022-07-10T01:19:00;10.73;;;10.00;;
11255;SDS011;5685;52.384;13.420;2022-07-10T01:22:04;10.53;;;9.90;;
11255;SDS011;5685;52.384;13.420;2022-07-10T01:25:06;10.57;;;9.87;;
11255;SDS011;5685;52.384;13.420;2022-07-10T01:28:11;10.30;;;9.70;;
11255;SDS011;5685;52.384;13.420;2022-07-10T01:31:13;11.83;;;11.03;;
11255;SDS011;5685;52.384;13.420;2022-07-10T01:34:15;11.20;;;10.40;;
11255;SDS011;5685;52.384;13.420;2022-07-10T01:37:19;10.30;;;9.57;;
11255;SDS011;5685;52.384;13.420;2022-07-10T01:40:21;9.77;;;9.20;;
11255;SDS011;5685;52.384;13.420;2022-07-10T01:43:23;10.53;;;9.87;;
11255;SDS011;5685;52.384;13.420;2022-07-10T01:46:25;10.07;;;9.47;;
11255;SDS011;5685;52.384;13.420;2022-07-10T01:49:27;10.00;;;9.20;;
11255;SDS011;5685;52.384;13.420;2022-07-10T01:52:31;10.30;;;9.73;;
11255;SDS011;5685;52.384;13.420;2022-07-10T01:55:33;9.70;;;9.10;;
11255;SDS011;5685;52.384;13.420;2022-07-10T01:58:36;9.87;;;9.27;;
11255;SDS011;5685;52.384;13.420;2022-07-10T02:01:38;9.97;;;9.47;;
11255;SDS011;5685;52.384;13.420;2022-07-10T02:04:40;9.90;;;9.40;;
11255;SDS011;5685;52.384;13.420;2022-07-10T02:07:43;10.53;;;9.93;;
11255;SDS011;5685;52.384;13.420;2022-07-10T02:10:45;10.37;;;9.67;;
11255;SDS011;5685;52.384;13.420;2022-07-10T02:13:47;10.13;;;9.33;;
11255;SDS011;5685;52.384;13.420;2022-07-10T02:16:50;10.13;;;9.47;;
11255;SDS011;5685;52.384;13.420;2022-07-10T02:19:52;10.13;;;9.33;;
11255;SDS011;5685;52.384;13.420;2022-07-10T02:22:56;10.37;;;9.57;;
11255;SDS011;5685;52.384;13.420;2022-07-10T02:25:58;9.93;;;9.33;;
11255;SDS011;5685;52.384;13.420;2022-07-10T02:29:00;10.30;;;9.73;;
11255;SDS011;5685;52.384;13.420;2022-07-10T02:32:03;10.27;;;9.67;;
11255;SDS011;5685;52.384;13.420;2022-07-10T02:35:06;10.10;;;9.47;;
11255;SDS011;5685;52.384;13.420;2022-07-10T02:38:10;9.40;;;8.80;;
11255;SDS011;5685;52.384;13.420;2022-07-10T02:41:12;10.00;;;9.40;;
11255;SDS011;5685;52.384;13.420;2022-07-10T02:44:14;10.50;;;9.73;;
11255;SDS011;5685;52.384;13.420;2022-07-10T02:47:17;9.93;;;9.43;;
11255;SDS011;5685;52.384;13.420;2022-07-10T02:50:19;9.67;;;8.97;;
11255;SDS011;5685;52.384;13.420;2022-07-10T02:53:22;10.07;;;9.47;;
11255;SDS011;5685;52.384;13.420;2022-07-10T02:56:25;9.60;;;9.00;;
11255;SDS011;5685;52.384;13.420;2022-07-10T02:59:27;9.20;;;8.67;;
11255;SDS011;5685;52.384;13.420;2022-07-10T03:02:29;9.70;;;9.20;;
11255;SDS011;5685;52.384;13.420;2022-07-10T03:05:31;9.30;;;8.80;;
11255;SDS011;5685;52.384;13.420;2022-07-10T03:08:35;10.13;;;9.63;;
11255;SDS011;5685;52.384;13.420;2022-07-10T03:11:37;9.43;;;9.03;;
11255;SDS011;5685;52.384;13.420;2022-07-10T03:14:39;10.20;;;9.50;;
11255;SDS011;5685;52.384;13.420;2022-07-10T03:17:41;9.60;;;9.10;;
11255;SDS011;5685;52.384;13.420;2022-07-10T03:20:43;9.23;;;8.73;;
11255;SDS011;5685;52.384;13.420;2022-07-10T03:23:46;9.67;;;9.13;;
11255;SDS011;5685;52.384;13.420;2022-07-10T03:26:48;9.70;;;9.10;;
11255;SDS011;5685;52.384;13.420;2022-07-10T03:29:50;10.43;;;9.73;;
11255;SDS011;5685;52.384;13.420;2022-07-10T03:32:52;10.00;;;9.40;;
11255;SDS011;5685;52.384;13.420;2022-07-10T03:35:54;9.57;;;9.10;;
11255;SDS011;5685;52.384;13.420;2022-07-10T03:38:57;9.57;;;9.07;;
11255;SDS011;5685;52.384;13.420;2022-07-10T03:41:59;10.10;;;9.60;;
11255;SDS011;5685;52.384;13.420;2022-07-10T03:45:01;9.50;;;9.00;;
11255;SDS011;5685;52.384;13.420;2022-07-10T03:48:04;9.47;;;8.87;;
11255;SDS011;5685;52.384;13.420;2022-07-10T03:51:06;9.60;;;9.00;;
11255;SDS011;5685;52.384;13.420;2022-07-10T03:54:10;9.23;;;8.73;;
11255;SDS011;5685;52.384;13.420;2022-07-10T03:57:12;9.37;;;8.90;;
11255;SDS011;5685;52.384;13.420;2022-07-10T04:00:32;9.70;;;9.20;;
11255;SDS011;5685;52.384;13.420;2022-07-10T04:03:37;9.50;;;9.00;;
11255;SDS011;5685;52.384;13.420;2022-07-10T04:06:39;9.63;;;9.13;;
11255;SDS011;5685;52.384;13.420;2022-07-10T04:09:42;9.50;;;8.90;;
11255;SDS011;5685;52.384;13.420;2022-07-10T04:12:44;9.50;;;9.00;;
11255;SDS011;5685;52.384;13.420;2022-07-10T04:15:46;9.73;;;9.13;;
11255;SDS011;5685;52.384;13.420;2022-07-10T04:18:48;9.57;;;8.97;;
11255;SDS011;5685;52.384;13.420;2022-07-10T04:21:50;9.70;;;9.20;;
11255;SDS011;5685;52.384;13.420;2022-07-10T04:24:53;9.30;;;8.70;;
11255;SDS011;5685;52.384;13.420;2022-07-10T04:27:55;9.50;;;9.03;;
11255;SDS011;5685;52.384;13.420;2022-07-10T04:30:57;9.27;;;8.77;;
11255;SDS011;5685;52.384;13.420;2022-07-10T04:33:59;10.07;;;9.37;;
11255;SDS011;5685;52.384;13.420;2022-07-10T04:37:02;9.17;;;8.53;;
11255;SDS011;5685;52.384;13.420;2022-07-10T04:40:07;9.67;;;9.10;;
11255;SDS011;5685;52.384;13.420;2022-07-10T04:43:11;9.70;;;9.17;;
11255;SDS011;5685;52.384;13.420;2022-07-10T04:46:13;9.57;;;9.07;;
11255;SDS011;5685;52.384;13.420;2022-07-10T04:49:15;9.57;;;8.93;;
11255;SDS011;5685;52.384;13.420;2022-07-10T04:52:16;9.27;;;8.70;;
11255;SDS011;5685;52.384;13.420;2022-07-10T04:55:20;9.30;;;8.80;;
11255;SDS011;5685;52.384;13.420;2022-07-10T04:58:22;8.90;;;8.40;;
11255;SDS011;5685;52.384;13.420;2022-07-10T05:01:24;9.30;;;8.80;;
11255;SDS011;5685;52.384;13.420;2022-07-10T05:04:26;9.37;;;8.87;;
11255;SDS011;5685;52.384;13.420;2022-07-10T05:07:28;9.40;;;8.90;;
11255;SDS011;5685;52.384;13.420;2022-07-10T05:10:32;10.17;;;9.37;;
11255;SDS011;5685;52.384;13.420;2022-07-10T05:13:35;9.33;;;8.90;;
11255;SDS011;5685;52.384;13.420;2022-07-10T05:16:37;9.13;;;8.63;;
11255;SDS011;5685;52.384;13.420;2022-07-10T05:19:39;10.40;;;9.60;;
11255;SDS011;5685;52.384;13.420;2022-07-10T05:22:41;9.50;;;8.80;;
11255;SDS011;5685;52.384;13.420;2022-07-10T05:25:45;9.33;;;8.83;;
11255;SDS011;5685;52.384;13.420;2022-07-10T05:28:47;9.33;;;8.80;;
11255;SDS011;5685;52.384;13.420;2022-07-10T05:31:50;9.80;;;9.30;;
11255;SDS011;5685;52.384;13.420;2022-07-10T05:34:52;9.70;;;9.13;;
11255;SDS011;5685;52.384;13.420;2022-07-10T05:37:54;9.47;;;8.80;;
11255;SDS011;5685;52.384;13.420;2022-07-10T05:40:57;9.80;;;9.30;;
11255;SDS011;5685;52.384;13.420;2022-07-10T05:44:00;9.17;;;8.67;;
11255;SDS011;5685;52.384;13.420;2022-07-10T05:47:02;9.07;;;8.57;;
11255;SDS011;5685;52.384;13.420;2022-07-10T05:50:05;9.33;;;8.83;;
11255;SDS011;5685;52.384;13.420;2022-07-10T05:53:08;9.47;;;8.97;;
11255;SDS011;5685;52.384;13.420;2022-07-10T05:56:11;9.20;;;8.70;;
11255;SDS011;5685;52.384;13.420;2022-07-10T05:59:14;9.67;;;9.00;;
11255;SDS011;5685;52.384;13.420;2022-07-10T06:02:16;10.07;;;9.23;;
11255;SDS011;5685;52.384;13.420;2022-07-10T06:05:19;9.80;;;9.10;;
11255;SDS011;5685;52.384;13.420;2022-07-10T06:08:21;9.03;;;8.53;;
11255;SDS011;5685;52.384;13.420;2022-07-10T06:11:25;9.30;;;8.80;;
11255;SDS011;5685;52.384;13.420;2022-07-10T06:14:27;9.10;;;8.60;;
11255;SDS011;5685;52.384;13.420;2022-07-10T06:17:29;9.23;;;8.73;;
11255;SDS011;5685;52.384;13.420;2022-07-10T06:20:31;9.10;;;8.50;;
11255;SDS011;5685;52.384;13.420;2022-07-10T06:23:34;9.43;;;8.93;;
11255;SDS011;5685;52.384;13.420;2022-07-10T06:26:37;9.13;;;8.63;;
11255;SDS011;5685;52.384;13.420;2022-07-10T06:29:40;9.10;;;8.60;;
11255;SDS011;5685;52.384;13.420;2022-07-10T06:32:42;9.47;;;8.87;;
11255;SDS011;5685;52.384;13.420;2022-07-10T06:35:45;9.77;;;9.23;;
11255;SDS011;5685;52.384;13.420;2022-07-10T06:38:47;9.37;;;8.77;;
11255;SDS011;5685;52.384;13.420;2022-07-10T06:41:51;9.43;;;8.93;;
11255;SDS011;5685;52.384;13.420;2022-07-10T06:44:53;9.17;;;8.77;;
11255;SDS011;5685;52.384;13.420;2022-07-10T06:47:56;9.43;;;8.83;;
11255;SDS011;5685;52.384;13.420;2022-07-10T06:50:58;9.17;;;8.67;;
11255;SDS011;5685;52.384;13.420;2022-07-10T06:54:01;9.60;;;9.00;;
11255;SDS011;5685;52.384;13.420;2022-07-10T06:57:05;9.07;;;8.67;;
11255;SDS011;5685;52.384;13.420;2022-07-10T07:00:08;9.50;;;8.90;;
11255;SDS011;5685;52.384;13.420;2022-07-10T07:03:11;9.03;;;8.63;;
11255;SDS011;5685;52.384;13.420;2022-07-10T07:06:13;9.83;;;9.43;;
11255;SDS011;5685;52.384;13.420;2022-07-10T07:09:15;9.80;;;9.30;;
11255;SDS011;5685;52.384;13.420;2022-07-10T07:12:19;9.73;;;9.03;;
11255;SDS011;5685;52.384;13.420;2022-07-10T07:15:21;9.33;;;8.83;;
11255;SDS011;5685;52.384;13.420;2022-07-10T07:18:24;10.07;;;9.57;;
11255;SDS011;5685;52.384;13.420;2022-07-10T07:21:32;9.50;;;8.97;;
11255;SDS011;5685;52.384;13.420;2022-07-10T07:24:52;10.07;;;9.47;;
11255;SDS011;5685;52.384;13.420;2022-07-10T07:27:55;9.70;;;9.00;;
11255;SDS011;5685;52.384;13.420;2022-07-10T07:30:57;9.00;;;8.50;;
11255;SDS011;5685;52.384;13.420;2022-07-10T07:33:59;9.03;;;8.53;;
11255;SDS011;5685;52.384;13.420;2022-07-10T07:37:02;9.77;;;8.80;;
11255;SDS011;5685;52.384;13.420;2022-07-10T07:40:05;9.67;;;9.13;;
11255;SDS011;5685;52.384;13.420;2022-07-10T07:43:11;9.60;;;8.83;;
11255;SDS011;5685;52.384;13.420;2022-07-10T07:46:13;9.53;;;8.93;;
11255;SDS011;5685;52.384;13.420;2022-07-10T07:49:15;9.47;;;8.77;;
11255;SDS011;5685;52.384;13.420;2022-07-10T07:52:17;9.60;;;9.10;;
11255;SDS011;5685;52.384;13.420;2022-07-10T07:55:19;9.23;;;8.57;;
11255;SDS011;5685;52.384;13.420;2022-07-10T07:58:24;9.20;;;8.53;;
11255;SDS011;5685;52.384;13.420;2022-07-10T08:01:26;9.37;;;8.77;;
11255;SDS011;5685;52.384;13.420;2022-07-10T08:04:29;9.20;;;8.70;;
11255;SDS011;5685;52.384;13.420;2022-07-10T08:07:34;9.20;;;8.60;;
11255;SDS011;5685;52.384;13.420;2022-07-10T08:10:38;9.53;;;9.03;;
11255;SDS011;5685;52.384;13.420;2022-07-10T08:13:41;8.73;;;8.23;;
11255;SDS011;5685;52.384;13.420;2022-07-10T08:16:44;9.40;;;8.90;;
11255;SDS011;5685;52.384;13.420;2022-07-10T08:19:46;9.77;;;9.27;;
11255;SDS011;5685;52.384;13.420;2022-07-10T08:22:48;9.10;;;8.57;;
11255;SDS011;5685;52.384;13.420;2022-07-10T08:25:52;9.80;;;9.20;;
11255;SDS011;5685;52.384;13.420;2022-07-10T08:28:56;9.87;;;9.23;;
11255;SDS011;5685;52.384;13.420;2022-07-10T08:31:58;10.00;;;9.30;;
11255;SDS011;5685;52.384;13.420;2022-07-10T08:35:00;9.77;;;9.10;;
11255;SDS011;5685;52.384;13.420;2022-07-10T08:38:02;9.70;;;8.90;;
11255;SDS011;5685;52.384;13.420;2022-07-10T08:41:05;9.73;;;9.23;;
11255;SDS011;5685;52.384;13.420;2022-07-10T08:44:09;10.23;;;9.63;;
11255;SDS011;5685;52.384;13.420;2022-07-10T08:47:11;10.40;;;9.80;;
11255;SDS011;5685;52.384;13.420;2022-07-10T08:50:16;9.77;;;9.17;;
11255;SDS011;5685;52.384;13.420;2022-07-10T08:53:23;10.10;;;9.47;;
11255;SDS011;5685;52.384;13.420;2022-07-10T08:56:31;9.43;;;8.90;;
11255;SDS011;5685;52.384;13.420;2022-07-10T08:59:34;9.63;;;9.03;;
11255;SDS011;5685;52.384;13.420;2022-07-10T09:02:37;9.97;;;9.17;;
11255;SDS011;5685;52.384;13.420;2022-07-10T09:05:39;9.50;;;9.00;;
11255;SDS011;5685;52.384;13.420;2022-07-10T09:08:44;9.97;;;9.33;;
11255;SDS011;5685;52.384;13.420;2022-07-10T09:12:00;9.60;;;9.00;;
11255;SDS011;5685;52.384;13.420;2022-07-10T09:15:14;10.10;;;9.20;;
11255;SDS011;5685;52.384;13.420;2022-07-10T09:18:18;10.20;;;9.50;;
11255;SDS011;5685;52.384;13.420;2022-07-10T09:21:25;9.87;;;9.33;;
11255;SDS011;5685;52.384;13.420;2022-07-10T09:24:37;9.73;;;9.10;;
11255;SDS011;5685;52.384;13.420;2022-07-10T09:27:50;9.50;;;9.00;;
11255;SDS011;5685;52.384;13.420;2022-07-10T09:30:55;9.70;;;8.90;;
11255;SDS011;5685;52.384;13.420;2022-07-10T09:33:58;9.20;;;8.70;;
11255;SDS011;5685;52.384;13.420;2022-07-10T09:37:04;9.87;;;9.27;;
11255;SDS011;5685;52.384;13.420;2022-07-10T09:40:22;9.40;;;8.80;;
11255;SDS011;5685;52.384;13.420;2022-07-10T09:43:32;10.10;;;9.30;;
11255;SDS011;5685;52.384;13.420;2022-07-10T09:46:47;10.43;;;9.73;;
11255;SDS011;5685;52.384;13.420;2022-07-10T09:49:49;10.13;;;9.30;;
11255;SDS011;5685;52.384;13.420;2022-07-10T09:52:51;9.17;;;8.67;;
11255;SDS011;5685;52.384;13.420;2022-07-10T09:55:57;9.60;;;8.90;;
11255;SDS011;5685;52.384;13.420;2022-07-10T09:59:02;9.23;;;8.67;;
11255;SDS011;5685;52.384;13.420;2022-07-10T10:02:12;9.53;;;8.93;;
11255;SDS011;5685;52.384;13.420;2022-07-10T10:05:17;10.33;;;9.53;;
11255;SDS011;5685;52.384;13.420;2022-07-10T10:08:21;9.70;;;8.90;;
11255;SDS011;5685;52.384;13.420;2022-07-10T10:11:27;10.10;;;9.50;;
11255;SDS011;5685;52.384;13.420;2022-07-10T10:14:29;9.60;;;8.83;;
11255;SDS011;5685;52.384;13.420;2022-07-10T10:17:36;9.80;;;9.00;;
11255;SDS011;5685;52.384;13.420;2022-07-10T10:20:40;10.40;;;9.70;;
11255;SDS011;5685;52.384;13.420;2022-07-10T10:23:46;9.90;;;9.07;;
11255;SDS011;5685;52.384;13.420;2022-07-10T10:26:48;10.20;;;9.50;;
11255;SDS011;5685;52.384;13.420;2022-07-10T10:29:50;9.70;;;9.07;;
11255;SDS011;5685;52.384;13.420;2022-07-10T10:32:54;9.67;;;9.07;;
11255;SDS011;5685;52.384;13.420;2022-07-10T10:35:56;9.80;;;9.20;;
11255;SDS011;5685;52.384;13.420;2022-07-10T10:38:59;9.50;;;8.90;;
11255;SDS011;5685;52.384;13.420;2022-07-10T10:42:21;9.37;;;8.87;;
11255;SDS011;5685;52.384;13.420;2022-07-10T10:45:36;9.47;;;8.97;;
11255;SDS011;5685;52.384;13.420;2022-07-10T10:48:40;9.90;;;9.10;;
11255;SDS011;5685;52.384;13.420;2022-07-10T10:52:08;9.50;;;8.83;;
11255;SDS011;5685;52.384;13.420;2022-07-10T10:55:15;9.50;;;9.00;;
11255;SDS011;5685;52.384;13.420;2022-07-10T10:58:18;9.77;;;9.27;;
11255;SDS011;5685;52.384;13.420;2022-07-10T11:01:27;10.67;;;10.00;;
11255;SDS011;5685;52.384;13.420;2022-07-10T11:04:33;9.67;;;9.03;;
11255;SDS011;5685;52.384;13.420;2022-07-10T11:07:51;10.23;;;9.33;;
11255;SDS011;5685;52.384;13.420;2022-07-10T11:10:53;10.23;;;9.43;;
11255;SDS011;5685;52.384;13.420;2022-07-10T11:13:56;10.03;;;9.53;;
11255;SDS011;5685;52.384;13.420;2022-07-10T11:16:59;9.70;;;9.00;;
11255;SDS011;5685;52.384;13.420;2022-07-10T11:20:03;10.13;;;9.37;;
11255;SDS011;5685;52.384;13.420;2022-07-10T11:23:17;9.53;;;9.03;;
11255;SDS011;5685;52.384;13.420;2022-07-10T11:26:52;9.60;;;9.00;;
11255;SDS011;5685;52.384;13.420;2022-07-10T11:30:00;10.30;;;9.60;;
11255;SDS011;5685;52.384;13.420;2022-07-10T11:33:03;10.17;;;9.47;;
11255;SDS011;5685;52.384;13.420;2022-07-10T11:36:10;10.00;;;9.37;;
11255;SDS011;5685;52.384;13.420;2022-07-10T11:39:14;9.80;;;9.10;;
11255;SDS011;5685;52.384;13.420;2022-07-10T11:42:16;9.50;;;9.00;;
11255;SDS011;5685;52.384;13.420;2022-07-10T11:45:25;10.10;;;9.60;;
11255;SDS011;5685;52.384;13.420;2022-07-10T11:48:30;9.27;;;8.77;;
11255;SDS011;5685;52.384;13.420;2022-07-10T11:51:41;10.20;;;9.50;;
11255;SDS011;5685;52.384;13.420;2022-07-10T11:54:44;9.30;;;8.80;;
11255;SDS011;5685;52.384;13.420;2022-07-10T11:57:46;9.73;;;9.17;;
11255;SDS011;5685;52.384;13.420;2022-07-10T12:00:59;10.50;;;9.73;;
11255;SDS011;5685;52.384;13.420;2022-07-10T12:04:06;9.67;;;9.07;;
11255;SDS011;5685;52.384;13.420;2022-07-10T12:07:11;10.00;;;9.30;;
11255;SDS011;5685;52.384;13.420;2022-07-10T12:10:14;9.57;;;9.00;;
11255;SDS011;5685;52.384;13.420;2022-07-10T12:13:16;10.13;;;9.43;;
11255;SDS011;5685;52.384;13.420;2022-07-10T12:16:19;9.63;;;9.03;;
11255;SDS011;5685;52.384;13.420;2022-07-10T12:19:22;9.30;;;8.80;;
11255;SDS011;5685;52.384;13.420;2022-07-10T12:22:29;9.40;;;8.90;;
11255;SDS011;5685;52.384;13.420;2022-07-10T12:25:31;9.67;;;9.17;;
11255;SDS011;5685;52.384;13.420;2022-07-10T12:28:47;9.90;;;9.30;;
11255;SDS011;5685;52.384;13.420;2022-07-10T12:31:54;9.67;;;8.93;;
11255;SDS011;5685;52.384;13.420;2022-07-10T12:34:59;10.17;;;9.50;;
11255;SDS011;5685;52.384;13.420;2022-07-10T12:38:02;9.80;;;9.10;;
11255;SDS011;5685;52.384;13.420;2022-07-10T12:41:06;9.17;;;8.57;;
11255;SDS011;5685;52.384;13.420;2022-07-10T12:44:09;11.80;;;8.43;;
11255;SDS011;5685;52.384;13.420;2022-07-10T12:47:14;9.13;;;8.43;;
11255;SDS011;5685;52.384;13.420;2022-07-10T12:50:18;9.07;;;8.40;;
11255;SDS011;5685;52.384;13.420;2022-07-10T12:53:22;9.47;;;8.83;;
11255;SDS011;5685;52.384;13.420;2022-07-10T12:56:28;9.57;;;8.87;;
11255;SDS011;5685;52.384;13.420;2022-07-10T12:59:35;9.70;;;8.93;;
11255;SDS011;5685;52.384;13.420;2022-07-10T13:02:38;9.70;;;8.80;;
11255;SDS011;5685;52.384;13.420;2022-07-10T13:05:41;9.47;;;8.73;;
11255;SDS011;5685;52.384;13.420;2022-07-10T13:08:46;10.20;;;9.60;;
11255;SDS011;5685;52.384;13.420;2022-07-10T13:11:48;10.17;;;9.57;;
11255;SDS011;5685;52.384;13.420;2022-07-10T13:14:51;10.33;;;9.63;;
11255;SDS011;5685;52.384;13.420;2022-07-10T13:17:53;9.67;;;9.07;;
11255;SDS011;5685;52.384;13.420;2022-07-10T13:20:56;9.40;;;8.90;;
11255;SDS011;5685;52.384;13.420;2022-07-10T13:24:00;10.27;;;9.37;;
11255;SDS011;5685;52.384;13.420;2022-07-10T13:27:03;10.07;;;9.27;;
11255;SDS011;5685;52.384;13.420;2022-07-10T13:30:06;9.90;;;9.30;;
11255;SDS011;5685;52.384;13.420;2022-07-10T13:33:10;8.97;;;8.33;;
11255;SDS011;5685;52.384;13.420;2022-07-10T13:36:12;9.13;;;8.60;;
11255;SDS011;5685;52.384;13.420;2022-07-10T13:39:16;9.93;;;9.33;;
11255;SDS011;5685;52.384;13.420;2022-07-10T13:42:18;10.17;;;8.83;;
11255;SDS011;5685;52.384;13.420;2022-07-10T13:45:20;10.07;;;9.27;;
11255;SDS011;5685;52.384;13.420;2022-07-10T13:48:23;9.50;;;9.00;;
11255;SDS011;5685;52.384;13.420;2022-07-10T13:51:25;9.63;;;9.10;;
11255;SDS011;5685;52.384;13.420;2022-07-10T13:54:29;9.97;;;9.07;;
11255;SDS011;5685;52.384;13.420;2022-07-10T13:57:31;9.57;;;9.07;;
11255;SDS011;5685;52.384;13.420;2022-07-10T14:00:34;9.67;;;8.97;;
11255;SDS011;5685;52.384;13.420;2022-07-10T14:03:36;10.00;;;9.30;;
11255;SDS011;5685;52.384;13.420;2022-07-10T14:06:38;10.50;;;9.90;;
11255;SDS011;5685;52.384;13.420;2022-07-10T14:09:42;9.90;;;9.30;;
11255;SDS011;5685;52.384;13.420;2022-07-10T14:12:44;9.57;;;9.03;;
11255;SDS011;5685;52.384;13.420;2022-07-10T14:15:47;9.80;;;9.30;;
11255;SDS011;5685;52.384;13.420;2022-07-10T14:18:49;9.83;;;9.17;;
11255;SDS011;5685;52.384;13.420;2022-07-10T14:21:51;10.10;;;9.40;;
11255;SDS011;5685;52.384;13.420;2022-07-10T14:24:54;9.67;;;9.07;;
11255;SDS011;5685;52.384;13.420;2022-07-10T14:27:58;10.37;;;9.67;;
11255;SDS011;5685;52.384;13.420;2022-07-10T14:31:00;9.73;;;9.23;;
11255;SDS011;5685;52.384;13.420;2022-07-10T14:34:03;9.87;;;9.27;;
11255;SDS011;5685;52.384;13.420;2022-07-10T14:37:05;9.83;;;8.87;;
11255;SDS011;5685;52.384;13.420;2022-07-10T14:40:09;10.40;;;9.70;;
11255;SDS011;5685;52.384;13.420;2022-07-10T14:43:12;10.20;;;9.40;;
11255;SDS011;5685;52.384;13.420;2022-07-10T14:46:14;9.97;;;9.27;;
11255;SDS011;5685;52.384;13.420;2022-07-10T14:49:17;9.57;;;8.87;;
11255;SDS011;5685;52.384;13.420;2022-07-10T14:52:19;10.17;;;9.50;;
11255;SDS011;5685;52.384;13.420;2022-07-10T14:55:23;9.80;;;9.20;;
11255;SDS011;5685;52.384;13.420;2022-07-10T14:58:25;10.60;;;9.80;;
11255;SDS011;5685;52.384;13.420;2022-07-10T15:01:28;9.97;;;9.37;;
11255;SDS011;5685;52.384;13.420;2022-07-10T15:04:30;9.53;;;9.03;;
11255;SDS011;5685;52.384;13.420;2022-07-10T15:07:32;9.17;;;8.67;;
11255;SDS011;5685;52.384;13.420;2022-07-10T15:10:35;9.40;;;8.90;;
11255;SDS011;5685;52.384;13.420;2022-07-10T15:13:38;9.40;;;8.90;;
11255;SDS011;5685;52.384;13.420;2022-07-10T15:16:40;9.57;;;8.87;;
11255;SDS011;5685;52.384;13.420;2022-07-10T15:19:43;9.10;;;8.57;;
11255;SDS011;5685;52.384;13.420;2022-07-10T15:22:45;9.73;;;9.23;;
11255;SDS011;5685;52.384;13.420;2022-07-10T15:25:48;9.40;;;8.90;;
11255;SDS011;5685;52.384;13.420;2022-07-10T15:28:51;8.77;;;8.37;;
11255;SDS011;5685;52.384;13.420;2022-07-10T15:31:55;9.40;;;8.80;;
11255;SDS011;5685;52.384;13.420;2022-07-10T15:34:57;9.43;;;8.83;;
11255;SDS011;5685;52.384;13.420;2022-07-10T15:37:59;10.17;;;9.67;;
11255;SDS011;5685;52.384;13.420;2022-07-10T15:41:03;9.70;;;9.10;;
11255;SDS011;5685;52.384;13.420;2022-07-10T15:44:05;9.57;;;9.03;;
11255;SDS011;5685;52.384;13.420;2022-07-10T15:47:07;9.50;;;8.87;;
11255;SDS011;5685;52.384;13.420;2022-07-10T15:50:09;9.63;;;9.03;;
11255;SDS011;5685;52.384;13.420;2022-07-10T15:53:11;9.67;;;8.97;;
11255;SDS011;5685;52.384;13.420;2022-07-10T15:56:15;10.37;;;9.60;;
11255;SDS011;5685;52.384;13.420;2022-07-10T15:59:17;9.10;;;8.60;;
11255;SDS011;5685;52.384;13.420;2022-07-10T16:02:21;10.03;;;9.53;;
11255;SDS011;5685;52.384;13.420;2022-07-10T16:05:23;10.43;;;9.53;;
11255;SDS011;5685;52.384;13.420;2022-07-10T16:08:25;9.30;;;8.60;;
11255;SDS011;5685;52.384;13.420;2022-07-10T16:11:29;9.57;;;8.93;;
11255;SDS011;5685;52.384;13.420;2022-07-10T16:14:31;9.33;;;8.73;;
11255;SDS011;5685;52.384;13.420;2022-07-10T16:17:33;9.90;;;9.30;;
11255;SDS011;5685;52.384;13.420;2022-07-10T16:20:35;10.23;;;9.53;;
11255;SDS011;5685;52.384;13.420;2022-07-10T16:23:38;10.03;;;9.43;;
11255;SDS011;5685;52.384;13.420;2022-07-10T16:26:41;10.70;;;9.73;;
11255;SDS011;5685;52.384;13.420;2022-07-10T16:29:43;41.37;;;18.07;;
11255;SDS011;5685;52.384;13.420;2022-07-10T16:32:45;117.17;;;37.90;;
11255;SDS011;5685;52.384;13.420;2022-07-10T16:35:48;123.07;;;39.83;;
11255;SDS011;5685;52.384;13.420;2022-07-10T16:38:50;171.77;;;46.50;;
11255;SDS011;5685;52.384;13.420;2022-07-10T16:41:54;191.60;;;50.17;;
11255;SDS011;5685;52.384;13.420;2022-07-10T16:44:56;196.40;;;49.50;;
11255;SDS011;5685;52.384;13.420;2022-07-10T16:47:58;173.83;;;56.03;;
11255;SDS011;5685;52.384;13.420;2022-07-10T16:51:00;182.43;;;60.93;;
11255;SDS011;5685;52.384;13.420;2022-07-10T16:54:02;178.67;;;60.87;;
11255;SDS011;5685;52.384;13.420;2022-07-10T16:57:08;133.80;;;48.00;;
11255;SDS011;5685;52.384;13.420;2022-07-10T17:00:11;140.23;;;53.13;;
11255;SDS011;5685;52.384;13.420;2022-07-10T17:03:14;150.23;;;51.47;;
11255;SDS011;5685;52.384;13.420;2022-07-10T17:06:16;140.87;;;46.20;;
11255;SDS011;5685;52.384;13.420;2022-07-10T17:09:18;145.10;;;49.03;;
11255;SDS011;5685;52.384;13.420;2022-07-10T17:12:22;125.10;;;43.90;;
11255;SDS011;5685;52.384;13.420;2022-07-10T17:15:24;135.90;;;45.53;;
11255;SDS011;5685;52.384;13.420;2022-07-10T17:18:27;132.73;;;44.97;;
11255;SDS011;5685;52.384;13.420;2022-07-10T17:21:31;112.73;;;42.70;;
11255;SDS011;5685;52.384;13.420;2022-07-10T17:24:33;102.23;;;36.53;;
11255;SDS011;5685;52.384;13.420;2022-07-10T17:27:37;112.87;;;38.70;;
11255;SDS011;5685;52.384;13.420;2022-07-10T17:30:40;93.13;;;38.33;;
11255;SDS011;5685;52.384;13.420;2022-07-10T17:33:45;87.37;;;32.93;;
11255;SDS011;5685;52.384;13.420;2022-07-10T17:36:47;88.57;;;36.03;;
11255;SDS011;5685;52.384;13.420;2022-07-10T17:39:49;74.57;;;29.77;;
11255;SDS011;5685;52.384;13.420;2022-07-10T17:42:53;62.80;;;25.33;;
11255;SDS011;5685;52.384;13.420;2022-07-10T17:45:55;72.00;;;31.40;;
11255;SDS011;5685;52.384;13.420;2022-07-10T17:48:57;69.87;;;28.33;;
11255;SDS011;5685;52.384;13.420;2022-07-10T17:51:59;65.00;;;26.47;;
11255;SDS011;5685;52.384;13.420;2022-07-10T17:55:02;61.00;;;25.27;;
11255;SDS011;5685;52.384;13.420;2022-07-10T17:58:08;62.67;;;27.93;;
11255;SDS011;5685;52.384;13.420;2022-07-10T18:01:10;64.27;;;29.53;;
11255;SDS011;5685;52.384;13.420;2022-07-10T18:04:12;58.60;;;27.97;;
11255;SDS011;5685;52.384;13.420;2022-07-10T18:07:14;60.70;;;27.87;;
11255;SDS011;5685;52.384;13.420;2022-07-10T18:10:17;71.13;;;29.67;;
11255;SDS011;5685;52.384;13.420;2022-07-10T18:13:20;70.10;;;30.10;;
11255;SDS011;5685;52.384;13.420;2022-07-10T18:16:22;52.47;;;21.67;;